createdAt,value
2017-03-07T00:00:06.571Z,0
2017-03-07T00:01:06.590Z,0
2017-03-07T00:02:06.113Z,0
2017-03-07T00:03:06.591Z,0
2017-03-07T00:04:06.640Z,0
2017-03-07T00:05:05.773Z,0
2017-03-07T00:06:06.658Z,0
2017-03-07T00:07:06.310Z,0
2017-03-07T00:08:06.666Z,0
2017-03-07T00:09:06.669Z,0
2017-03-07T00:10:06.376Z,0
2017-03-07T00:11:05.857Z,0
2017-03-07T00:12:06.672Z,0
2017-03-07T00:13:06.695Z,0
2017-03-07T00:14:06.710Z,0
2017-03-07T00:15:06.415Z,0
2017-03-07T00:16:06.834Z,0
2017-03-07T00:17:06.783Z,0
2017-03-07T00:18:06.772Z,0
2017-03-07T00:19:06.811Z,0
2017-03-07T00:20:06.428Z,0
2017-03-07T00:21:08.218Z,0
2017-03-07T00:22:06.837Z,0
2017-03-07T00:23:06.858Z,0
2017-03-07T00:24:06.511Z,0
2017-03-07T00:25:06.100Z,0
2017-03-07T00:26:06.481Z,0
2017-03-07T00:27:06.497Z,0
2017-03-07T00:28:06.547Z,0
2017-03-07T00:29:06.950Z,0
2017-03-07T00:30:06.561Z,0
2017-03-07T00:31:06.963Z,0
2017-03-07T00:32:06.993Z,0
2017-03-07T00:33:06.598Z,0
2017-03-07T00:34:06.631Z,0
2017-03-07T00:35:07.030Z,0
2017-03-07T00:36:06.323Z,0
2017-03-07T00:37:06.643Z,0
2017-03-07T00:38:07.234Z,0
2017-03-07T00:39:06.854Z,0
2017-03-07T00:40:06.865Z,0
2017-03-07T00:41:07.190Z,0
2017-03-07T00:42:07.201Z,0
2017-03-07T00:43:06.428Z,0
2017-03-07T00:44:06.435Z,0
2017-03-07T00:45:06.848Z,0
2017-03-07T00:46:06.476Z,0
2017-03-07T00:47:07.305Z,0
2017-03-07T00:48:07.276Z,0
2017-03-07T00:49:07.269Z,0
2017-03-07T00:50:07.264Z,0
2017-03-07T00:51:07.271Z,0
2017-03-07T00:52:07.361Z,0
2017-03-07T00:53:07.283Z,0
2017-03-07T00:54:07.294Z,0
2017-03-07T00:55:07.310Z,0
2017-03-07T00:56:07.330Z,0
2017-03-07T00:57:07.347Z,0
2017-03-07T00:58:07.358Z,0
2017-03-07T00:59:07.387Z,0
2017-03-07T01:00:07.415Z,0
2017-03-07T01:01:07.508Z,0
2017-03-07T01:02:07.431Z,0
2017-03-07T01:03:07.429Z,0
2017-03-07T01:04:07.048Z,0
2017-03-07T01:05:07.455Z,0
2017-03-07T01:06:07.492Z,0
2017-03-07T01:07:07.175Z,0
2017-03-07T01:08:07.504Z,0
2017-03-07T01:09:07.519Z,0
2017-03-07T01:10:07.542Z,0
2017-03-07T01:11:07.546Z,0
2017-03-07T01:12:07.580Z,0
2017-03-07T01:13:07.578Z,0
2017-03-07T01:14:07.603Z,0
2017-03-07T01:15:07.221Z,0
2017-03-07T01:16:07.248Z,0
2017-03-07T01:17:07.653Z,0
2017-03-07T01:18:07.672Z,0
2017-03-07T01:19:07.925Z,0
2017-03-07T01:20:07.755Z,0
2017-03-07T01:21:07.721Z,0
2017-03-07T01:22:07.369Z,0
2017-03-07T01:23:08.241Z,0
2017-03-07T01:24:07.751Z,0
2017-03-07T01:25:07.778Z,0
2017-03-07T01:26:07.784Z,0
2017-03-07T01:27:07.796Z,0
2017-03-07T01:28:07.802Z,0
2017-03-07T01:29:07.826Z,0
2017-03-07T01:30:07.839Z,0
2017-03-07T01:31:07.865Z,0
2017-03-07T01:32:07.482Z,0
2017-03-07T01:33:07.957Z,0
2017-03-07T01:34:07.511Z,0
2017-03-07T01:35:07.924Z,0
2017-03-07T01:36:07.925Z,0
2017-03-07T01:37:07.948Z,0
2017-03-07T01:38:07.570Z,0
2017-03-07T01:39:07.968Z,0
2017-03-07T01:40:07.593Z,0
2017-03-07T01:41:08.027Z,0
2017-03-07T01:42:08.051Z,0
2017-03-07T01:43:08.041Z,0
2017-03-07T01:44:07.668Z,0
2017-03-07T01:45:08.074Z,0
2017-03-07T01:46:08.083Z,0
2017-03-07T01:47:07.704Z,0
2017-03-07T01:48:08.123Z,0
2017-03-07T01:49:08.129Z,0
2017-03-07T01:50:07.377Z,0
2017-03-07T01:51:08.155Z,0
2017-03-07T01:52:08.201Z,0
2017-03-07T01:53:08.204Z,0
2017-03-07T01:54:07.809Z,0
2017-03-07T01:55:08.240Z,0
2017-03-07T01:56:07.961Z,0
2017-03-07T01:57:08.254Z,0
2017-03-07T01:58:08.283Z,0
2017-03-07T01:59:08.297Z,0
2017-03-07T02:00:08.316Z,0
2017-03-07T02:01:08.315Z,0
2017-03-07T02:02:08.326Z,0
2017-03-07T02:03:08.344Z,0
2017-03-07T02:04:07.974Z,0
2017-03-07T02:05:08.379Z,0
2017-03-07T02:06:08.015Z,0
2017-03-07T02:07:08.011Z,0
2017-03-07T02:08:07.624Z,0
2017-03-07T02:09:08.443Z,0
2017-03-07T02:10:08.457Z,0
2017-03-07T02:11:08.473Z,0
2017-03-07T02:12:07.684Z,0
2017-03-07T02:13:08.493Z,0
2017-03-07T02:14:08.510Z,0
2017-03-07T02:15:08.529Z,0
2017-03-07T02:16:08.545Z,0
2017-03-07T02:17:08.717Z,0
2017-03-07T02:18:08.184Z,0
2017-03-07T02:19:08.601Z,0
2017-03-07T02:20:08.226Z,0
2017-03-07T02:21:08.631Z,0
2017-03-07T02:22:08.250Z,0
2017-03-07T02:23:08.650Z,0
2017-03-07T02:24:08.256Z,0
2017-03-07T02:25:08.682Z,0
2017-03-07T02:26:08.706Z,0
2017-03-07T02:27:08.721Z,0
2017-03-07T02:28:08.723Z,0
2017-03-07T02:29:08.745Z,0
2017-03-07T02:30:08.791Z,0
2017-03-07T02:31:08.773Z,0
2017-03-07T02:32:08.802Z,0
2017-03-07T02:33:08.811Z,0
2017-03-07T02:34:08.822Z,0
2017-03-07T02:35:08.838Z,0
2017-03-07T02:36:08.837Z,0
2017-03-07T02:37:08.469Z,0
2017-03-07T02:38:08.878Z,0
2017-03-07T02:39:08.884Z,0
2017-03-07T02:40:08.901Z,0
2017-03-07T02:41:08.536Z,0
2017-03-07T02:42:08.935Z,0
2017-03-07T02:43:08.956Z,0
2017-03-07T02:44:08.579Z,0
2017-03-07T02:45:08.991Z,0
2017-03-07T02:46:08.605Z,0
2017-03-07T02:47:09.472Z,0
2017-03-07T02:48:09.031Z,0
2017-03-07T02:49:09.167Z,0
2017-03-07T02:50:09.187Z,0
2017-03-07T02:51:09.185Z,0
2017-03-07T02:52:08.718Z,0
2017-03-07T02:53:09.126Z,0
2017-03-07T02:54:09.134Z,0
2017-03-07T02:55:09.419Z,0
2017-03-07T02:56:09.492Z,0
2017-03-07T02:57:09.477Z,0
2017-03-07T02:58:09.296Z,0
2017-03-07T02:59:09.305Z,0
2017-03-07T03:00:09.314Z,0
2017-03-07T03:01:09.463Z,0
2017-03-07T03:02:09.345Z,0
2017-03-07T03:03:09.353Z,0
2017-03-07T03:04:09.362Z,0
2017-03-07T03:05:09.387Z,0
2017-03-07T03:06:09.387Z,0
2017-03-07T03:07:09.395Z,0
2017-03-07T03:08:09.404Z,0
2017-03-07T03:09:09.439Z,0
2017-03-07T03:10:08.625Z,0
2017-03-07T03:11:09.453Z,0
2017-03-07T03:12:09.452Z,0
2017-03-07T03:13:09.462Z,0
2017-03-07T03:14:09.470Z,0
2017-03-07T03:15:09.479Z,0
2017-03-07T03:16:09.488Z,0
2017-03-07T03:17:09.515Z,0
2017-03-07T03:18:09.094Z,0
2017-03-07T03:19:09.608Z,0
2017-03-07T03:20:09.501Z,0
2017-03-07T03:21:09.532Z,0
2017-03-07T03:22:09.525Z,0
2017-03-07T03:23:09.537Z,0
2017-03-07T03:24:09.563Z,0
2017-03-07T03:25:09.688Z,0
2017-03-07T03:26:09.625Z,0
2017-03-07T03:27:09.971Z,0
2017-03-07T03:28:09.677Z,0
2017-03-07T03:29:09.641Z,0
2017-03-07T03:30:09.662Z,0
2017-03-07T03:31:09.329Z,0
2017-03-07T03:32:09.724Z,0
2017-03-07T03:33:10.001Z,0
2017-03-07T03:34:10.013Z,0
2017-03-07T03:35:09.741Z,0
2017-03-07T03:36:09.765Z,0
2017-03-07T03:37:09.771Z,0
2017-03-07T03:38:09.422Z,0
2017-03-07T03:39:09.797Z,0
2017-03-07T03:40:09.816Z,0
2017-03-07T03:41:09.823Z,0
2017-03-07T03:42:09.529Z,0
2017-03-07T03:43:09.847Z,0
2017-03-07T03:44:09.865Z,0
2017-03-07T03:45:09.878Z,0
2017-03-07T03:46:09.893Z,0
2017-03-07T03:47:09.956Z,0
2017-03-07T03:48:09.949Z,0
2017-03-07T03:49:09.927Z,0
2017-03-07T03:50:10.124Z,0
2017-03-07T03:51:10.045Z,0
2017-03-07T03:52:10.343Z,0
2017-03-07T03:53:10.300Z,0
2017-03-07T03:54:10.332Z,0
2017-03-07T03:55:10.202Z,0
2017-03-07T03:56:10.078Z,0
2017-03-07T03:57:10.431Z,0
2017-03-07T03:58:09.941Z,0
2017-03-07T03:59:10.387Z,0
2017-03-07T04:00:10.270Z,0
2017-03-07T04:01:10.221Z,0
2017-03-07T04:02:10.150Z,0
2017-03-07T04:03:10.212Z,0
2017-03-07T04:04:10.259Z,0
2017-03-07T04:05:10.183Z,0
2017-03-07T04:06:09.863Z,0
2017-03-07T04:07:10.229Z,0
2017-03-07T04:08:10.213Z,0
2017-03-07T04:09:10.273Z,0
2017-03-07T04:10:10.243Z,0
2017-03-07T04:11:10.274Z,0
2017-03-07T04:12:10.529Z,0
2017-03-07T04:13:10.561Z,0
2017-03-07T04:14:10.001Z,0
2017-03-07T04:15:10.477Z,0
2017-03-07T04:16:10.338Z,0
2017-03-07T04:17:10.362Z,0
2017-03-07T04:18:10.351Z,0
2017-03-07T04:19:10.387Z,0
2017-03-07T04:20:10.411Z,0
2017-03-07T04:21:10.408Z,0
2017-03-07T04:22:10.412Z,0
2017-03-07T04:23:10.458Z,0
2017-03-07T04:24:10.455Z,0
2017-03-07T04:25:10.072Z,0
2017-03-07T04:26:10.484Z,0
2017-03-07T04:27:10.521Z,0
2017-03-07T04:28:10.550Z,0
2017-03-07T04:29:10.527Z,0
2017-03-07T04:30:09.740Z,0
2017-03-07T04:31:10.551Z,0
2017-03-07T04:32:10.174Z,0
2017-03-07T04:33:10.196Z,0
2017-03-07T04:34:10.586Z,0
2017-03-07T04:35:10.624Z,0
2017-03-07T04:36:10.623Z,0
2017-03-07T04:37:10.883Z,0
2017-03-07T04:38:10.669Z,0
2017-03-07T04:39:10.895Z,0
2017-03-07T04:40:10.971Z,0
2017-03-07T04:41:10.719Z,0
2017-03-07T04:42:10.727Z,0
2017-03-07T04:43:11.252Z,0
2017-03-07T04:44:11.089Z,0
2017-03-07T04:45:11.113Z,0
2017-03-07T04:46:10.897Z,0
2017-03-07T04:47:10.978Z,0
2017-03-07T04:48:11.126Z,0
2017-03-07T04:49:11.285Z,0
2017-03-07T04:50:10.701Z,0
2017-03-07T04:51:11.302Z,0
2017-03-07T04:52:11.294Z,0
2017-03-07T04:53:10.886Z,0
2017-03-07T04:54:11.030Z,0
2017-03-07T04:55:11.002Z,0
2017-03-07T04:56:11.183Z,0
2017-03-07T04:57:10.781Z,0
2017-03-07T04:58:11.146Z,0
2017-03-07T04:59:11.052Z,0
2017-03-07T05:00:10.375Z,0
2017-03-07T05:01:11.533Z,0
2017-03-07T05:02:10.884Z,0
2017-03-07T05:03:11.239Z,0
2017-03-07T05:04:11.038Z,0
2017-03-07T05:05:10.682Z,0
2017-03-07T05:06:10.692Z,0
2017-03-07T05:07:11.083Z,0
2017-03-07T05:08:11.098Z,0
2017-03-07T05:09:11.097Z,0
2017-03-07T05:10:11.108Z,0
2017-03-07T05:11:11.131Z,0
2017-03-07T05:12:11.138Z,0
2017-03-07T05:13:11.152Z,0
2017-03-07T05:14:10.766Z,0
2017-03-07T05:15:11.184Z,0
2017-03-07T05:16:11.196Z,0
2017-03-07T05:17:11.206Z,0
2017-03-07T05:18:11.217Z,0
2017-03-07T05:19:11.250Z,0
2017-03-07T05:20:11.257Z,0
2017-03-07T05:21:11.297Z,0
2017-03-07T05:22:11.287Z,0
2017-03-07T05:23:11.300Z,0
2017-03-07T05:24:11.309Z,0
2017-03-07T05:25:11.336Z,0
2017-03-07T05:26:11.346Z,0
2017-03-07T05:27:10.966Z,0
2017-03-07T05:28:11.457Z,0
2017-03-07T05:29:11.382Z,0
2017-03-07T05:30:11.396Z,4
2017-03-07T05:31:11.088Z,0
2017-03-07T05:32:11.435Z,0
2017-03-07T05:33:11.824Z,0
2017-03-07T05:34:11.746Z,4
2017-03-07T05:35:11.114Z,4
2017-03-07T05:36:11.357Z,8
2017-03-07T05:37:11.619Z,4
2017-03-07T05:38:11.692Z,4
2017-03-07T05:39:11.683Z,8
2017-03-07T05:40:11.539Z,8
2017-03-07T05:41:11.260Z,4
2017-03-07T05:42:11.901Z,8
2017-03-07T05:43:11.761Z,12
2017-03-07T05:44:11.918Z,8
2017-03-07T05:45:11.780Z,12
2017-03-07T05:46:11.772Z,12
2017-03-07T05:47:12.095Z,8
2017-03-07T05:48:11.968Z,12
2017-03-07T05:49:11.678Z,12
2017-03-07T05:50:11.774Z,16
2017-03-07T05:51:11.298Z,20
2017-03-07T05:52:11.713Z,20
2017-03-07T05:53:11.734Z,20
2017-03-07T05:54:11.760Z,28
2017-03-07T05:55:11.352Z,24
2017-03-07T05:56:11.876Z,28
2017-03-07T05:57:11.773Z,24
2017-03-07T05:58:11.911Z,32
2017-03-07T05:59:11.919Z,32
2017-03-07T06:00:11.953Z,44
2017-03-07T06:01:12.097Z,40
2017-03-07T06:02:11.935Z,36
2017-03-07T06:03:11.938Z,52
2017-03-07T06:04:11.977Z,60
2017-03-07T06:05:11.886Z,68
2017-03-07T06:06:12.022Z,68
2017-03-07T06:07:12.053Z,72
2017-03-07T06:08:11.543Z,72
2017-03-07T06:09:12.047Z,84
2017-03-07T06:10:11.568Z,88
2017-03-07T06:11:12.077Z,88
2017-03-07T06:12:12.088Z,92
2017-03-07T06:13:12.096Z,100
2017-03-07T06:14:12.106Z,100
2017-03-07T06:15:12.113Z,92
2017-03-07T06:16:11.678Z,112
2017-03-07T06:17:12.120Z,132
2017-03-07T06:18:12.170Z,116
2017-03-07T06:19:12.177Z,108
2017-03-07T06:20:11.713Z,88
2017-03-07T06:21:12.195Z,72
2017-03-07T06:22:12.204Z,84
2017-03-07T06:23:11.744Z,104
2017-03-07T06:24:11.762Z,144
2017-03-07T06:25:11.799Z,176
2017-03-07T06:26:11.014Z,180
2017-03-07T06:27:12.238Z,176
2017-03-07T06:28:12.246Z,172
2017-03-07T06:29:12.247Z,172
2017-03-07T06:30:12.237Z,176
2017-03-07T06:31:12.250Z,164
2017-03-07T06:32:12.267Z,192
2017-03-07T06:33:12.293Z,180
2017-03-07T06:34:12.304Z,160
2017-03-07T06:35:12.324Z,172
2017-03-07T06:36:12.339Z,176
2017-03-07T06:37:12.354Z,184
2017-03-07T06:38:12.373Z,172
2017-03-07T06:39:12.367Z,200
2017-03-07T06:40:12.386Z,200
2017-03-07T06:41:12.421Z,180
2017-03-07T06:42:12.414Z,164
2017-03-07T06:43:12.424Z,204
2017-03-07T06:44:12.434Z,188
2017-03-07T06:45:12.438Z,196
2017-03-07T06:46:11.678Z,204
2017-03-07T06:47:12.173Z,200
2017-03-07T06:48:12.493Z,180
2017-03-07T06:49:12.515Z,216
2017-03-07T06:50:12.516Z,236
2017-03-07T06:51:12.543Z,240
2017-03-07T06:52:12.586Z,272
2017-03-07T06:53:12.559Z,248
2017-03-07T06:54:12.589Z,272
2017-03-07T06:55:12.588Z,284
2017-03-07T06:56:12.596Z,316
2017-03-07T06:57:12.631Z,320
2017-03-07T06:58:12.668Z,284
2017-03-07T06:59:12.639Z,320
2017-03-07T07:00:12.654Z,300
2017-03-07T07:01:12.300Z,272
2017-03-07T07:02:12.695Z,276
2017-03-07T07:03:12.715Z,276
2017-03-07T07:04:12.715Z,212
2017-03-07T07:05:12.727Z,228
2017-03-07T07:06:12.745Z,216
2017-03-07T07:07:12.745Z,204
2017-03-07T07:08:12.784Z,196
2017-03-07T07:09:12.797Z,204
2017-03-07T07:10:12.803Z,220
2017-03-07T07:11:12.802Z,196
2017-03-07T07:12:12.823Z,204
2017-03-07T07:13:12.851Z,248
2017-03-07T07:14:12.846Z,224
2017-03-07T07:15:12.867Z,208
2017-03-07T07:16:12.886Z,224
2017-03-07T07:17:12.887Z,248
2017-03-07T07:18:12.919Z,260
2017-03-07T07:19:12.922Z,276
2017-03-07T07:20:12.536Z,228
2017-03-07T07:21:12.937Z,252
2017-03-07T07:22:12.957Z,220
2017-03-07T07:23:12.972Z,216
2017-03-07T07:24:12.977Z,200
2017-03-07T07:25:12.997Z,212
2017-03-07T07:26:12.635Z,204
2017-03-07T07:27:13.045Z,212
2017-03-07T07:28:13.040Z,252
2017-03-07T07:29:12.685Z,232
2017-03-07T07:30:13.071Z,224
2017-03-07T07:31:13.128Z,232
2017-03-07T07:32:13.112Z,220
2017-03-07T07:33:13.104Z,216
2017-03-07T07:34:13.140Z,244
2017-03-07T07:35:13.137Z,240
2017-03-07T07:36:12.759Z,244
2017-03-07T07:37:13.162Z,232
2017-03-07T07:38:13.189Z,216
2017-03-07T07:39:13.207Z,192
2017-03-07T07:40:13.222Z,220
2017-03-07T07:41:13.220Z,204
2017-03-07T07:42:12.834Z,184
2017-03-07T07:43:13.279Z,176
2017-03-07T07:44:13.264Z,204
2017-03-07T07:45:13.304Z,216
2017-03-07T07:46:13.298Z,240
2017-03-07T07:47:13.299Z,224
2017-03-07T07:48:13.308Z,236
2017-03-07T07:49:12.938Z,256
2017-03-07T07:50:13.354Z,284
2017-03-07T07:51:13.367Z,288
2017-03-07T07:52:13.382Z,308
2017-03-07T07:53:13.384Z,296
2017-03-07T07:54:13.389Z,276
2017-03-07T07:55:13.414Z,272
2017-03-07T07:56:13.436Z,308
2017-03-07T07:57:13.444Z,280
2017-03-07T07:58:13.474Z,292
2017-03-07T07:59:13.474Z,276
2017-03-07T08:00:13.495Z,288
2017-03-07T08:01:13.505Z,288
2017-03-07T08:02:13.497Z,280
2017-03-07T08:03:13.533Z,284
2017-03-07T08:04:13.616Z,288
2017-03-07T08:05:13.600Z,256
2017-03-07T08:06:13.897Z,244
2017-03-07T08:07:13.646Z,296
2017-03-07T08:08:13.254Z,300
2017-03-07T08:09:13.691Z,252
2017-03-07T08:10:13.719Z,256
2017-03-07T08:11:13.737Z,268
2017-03-07T08:12:13.325Z,316
2017-03-07T08:13:13.727Z,312
2017-03-07T08:14:13.674Z,304
2017-03-07T08:15:13.727Z,288
2017-03-07T08:16:13.694Z,296
2017-03-07T08:17:13.701Z,288
2017-03-07T08:18:13.726Z,284
2017-03-07T08:19:13.735Z,280
2017-03-07T08:20:13.754Z,276
2017-03-07T08:21:13.754Z,268
2017-03-07T08:22:13.378Z,276
2017-03-07T08:23:13.791Z,304
2017-03-07T08:24:13.816Z,320
2017-03-07T08:25:13.818Z,332
2017-03-07T08:26:13.849Z,372
2017-03-07T08:27:13.856Z,340
2017-03-07T08:28:13.871Z,352
2017-03-07T08:29:13.876Z,412
2017-03-07T08:30:13.890Z,412
2017-03-07T08:31:13.109Z,368
2017-03-07T08:32:13.919Z,356
2017-03-07T08:33:13.533Z,340
2017-03-07T08:34:13.979Z,320
2017-03-07T08:35:13.956Z,336
2017-03-07T08:36:13.579Z,376
2017-03-07T08:37:13.980Z,420
2017-03-07T08:38:13.988Z,520
2017-03-07T08:39:14.025Z,528
2017-03-07T08:40:13.640Z,536
2017-03-07T08:41:13.706Z,604
2017-03-07T08:42:14.044Z,592
2017-03-07T08:43:14.068Z,648
2017-03-07T08:44:14.076Z,660
2017-03-07T08:45:14.093Z,700
2017-03-07T08:46:13.712Z,720
2017-03-07T08:47:13.788Z,716
2017-03-07T08:48:13.773Z,616
2017-03-07T08:49:14.144Z,632
2017-03-07T08:50:13.366Z,704
2017-03-07T08:51:13.768Z,740
2017-03-07T08:52:14.178Z,712
2017-03-07T08:53:14.198Z,868
2017-03-07T08:54:15.034Z,744
2017-03-07T08:55:14.226Z,812
2017-03-07T08:56:14.256Z,720
2017-03-07T08:57:14.253Z,692
2017-03-07T08:58:14.272Z,636
2017-03-07T08:59:14.303Z,664
2017-03-07T09:00:14.288Z,624
2017-03-07T09:01:13.919Z,548
2017-03-07T09:02:14.328Z,560
2017-03-07T09:03:14.338Z,576
2017-03-07T09:04:14.351Z,576
2017-03-07T09:05:14.360Z,500
2017-03-07T09:06:14.384Z,500
2017-03-07T09:07:14.404Z,508
2017-03-07T09:08:14.397Z,520
2017-03-07T09:09:14.018Z,508
2017-03-07T09:12:31.892Z,480
2017-03-07T09:13:31.899Z,468
2017-03-07T09:14:31.900Z,464
2017-03-07T09:15:31.927Z,472
2017-03-07T09:16:31.929Z,484
2017-03-07T09:17:31.959Z,504
2017-03-07T09:18:31.574Z,508
2017-03-07T09:19:31.988Z,492
2017-03-07T09:20:32.003Z,532
2017-03-07T09:21:32.014Z,548
2017-03-07T09:22:32.026Z,548
2017-03-07T09:23:32.043Z,532
2017-03-07T09:24:31.644Z,568
2017-03-07T09:25:32.073Z,616
2017-03-07T09:26:32.069Z,592
2017-03-07T09:27:32.141Z,604
2017-03-07T09:28:32.090Z,624
2017-03-07T09:29:32.118Z,656
2017-03-07T09:30:32.134Z,664
2017-03-07T09:31:32.131Z,624
2017-03-07T09:32:32.192Z,620
2017-03-07T09:33:32.253Z,648
2017-03-07T09:34:32.263Z,668
2017-03-07T09:35:31.795Z,648
2017-03-07T09:36:32.280Z,668
2017-03-07T09:37:32.288Z,632
2017-03-07T09:38:32.286Z,652
2017-03-07T09:39:32.317Z,752
2017-03-07T09:40:32.325Z,688
2017-03-07T09:41:32.440Z,616
2017-03-07T09:42:31.894Z,764
2017-03-07T09:43:32.341Z,924
2017-03-07T09:44:32.351Z,936
2017-03-07T09:45:32.359Z,964
2017-03-07T09:46:32.360Z,1072
2017-03-07T09:47:32.368Z,1104
2017-03-07T09:48:32.551Z,972
2017-03-07T09:49:32.475Z,1064
2017-03-07T09:50:32.479Z,936
2017-03-07T09:51:32.018Z,928
2017-03-07T09:52:32.519Z,972
2017-03-07T09:53:32.519Z,888
2017-03-07T09:54:32.529Z,996
2017-03-07T09:55:32.479Z,1288
2017-03-07T09:56:32.487Z,1072
2017-03-07T09:57:32.506Z,1180
2017-03-07T09:58:32.514Z,972
2017-03-07T09:59:32.519Z,900
2017-03-07T10:00:32.209Z,732
2017-03-07T10:01:32.550Z,728
2017-03-07T10:02:32.567Z,840
2017-03-07T10:03:32.566Z,968
2017-03-07T10:04:32.607Z,1120
2017-03-07T10:05:32.597Z,1208
2017-03-07T10:06:32.629Z,1128
2017-03-07T10:07:32.629Z,1148
2017-03-07T10:08:32.642Z,1132
2017-03-07T10:09:32.665Z,1220
2017-03-07T10:10:32.696Z,1048
2017-03-07T10:11:32.691Z,808
2017-03-07T10:12:32.734Z,588
2017-03-07T10:13:32.481Z,552
2017-03-07T10:14:32.783Z,544
2017-03-07T10:15:32.741Z,556
2017-03-07T10:16:32.754Z,548
2017-03-07T10:17:32.784Z,572
2017-03-07T10:18:32.822Z,520
2017-03-07T10:19:32.781Z,504
2017-03-07T10:20:32.813Z,480
2017-03-07T10:21:32.454Z,480
2017-03-07T10:22:32.836Z,456
2017-03-07T10:23:32.862Z,472
2017-03-07T10:24:32.510Z,524
2017-03-07T10:25:32.892Z,508
2017-03-07T10:26:32.879Z,648
2017-03-07T10:27:32.900Z,592
2017-03-07T10:28:32.513Z,636
2017-03-07T10:29:32.533Z,556
2017-03-07T10:30:32.947Z,512
2017-03-07T10:31:32.972Z,416
2017-03-07T10:32:32.569Z,472
2017-03-07T10:33:32.987Z,496
2017-03-07T10:34:33.004Z,596
2017-03-07T10:35:33.041Z,708
2017-03-07T10:36:33.029Z,888
2017-03-07T10:37:33.038Z,1208
2017-03-07T10:38:33.061Z,1376
2017-03-07T10:39:33.065Z,1404
2017-03-07T10:40:32.690Z,872
2017-03-07T10:41:33.110Z,780
2017-03-07T10:42:33.110Z,812
2017-03-07T10:43:33.118Z,1008
2017-03-07T10:44:33.143Z,948
2017-03-07T10:45:33.164Z,860
2017-03-07T10:46:33.160Z,672
2017-03-07T10:47:33.184Z,752
2017-03-07T10:48:33.197Z,940
2017-03-07T10:49:33.211Z,1412
2017-03-07T10:50:33.237Z,1852
2017-03-07T10:51:33.239Z,1992
2017-03-07T10:52:33.243Z,1632
2017-03-07T10:53:33.275Z,1280
2017-03-07T10:54:33.268Z,1064
2017-03-07T10:55:33.292Z,1056
2017-03-07T10:56:32.902Z,1424
2017-03-07T10:57:33.434Z,1476
2017-03-07T10:58:33.368Z,1428
2017-03-07T10:59:33.362Z,1368
2017-03-07T11:00:33.373Z,1316
2017-03-07T11:01:33.376Z,1044
2017-03-07T11:02:33.378Z,860
2017-03-07T11:03:33.414Z,1000
2017-03-07T11:04:33.403Z,740
2017-03-07T11:05:33.424Z,636
2017-03-07T11:06:33.451Z,624
2017-03-07T11:07:33.443Z,644
2017-03-07T11:08:33.466Z,784
2017-03-07T11:09:33.086Z,876
2017-03-07T11:10:33.494Z,640
2017-03-07T11:11:33.524Z,724
2017-03-07T11:12:33.520Z,692
2017-03-07T11:13:33.538Z,672
2017-03-07T11:14:33.550Z,864
2017-03-07T11:15:33.626Z,1124
2017-03-07T11:16:33.581Z,1192
2017-03-07T11:17:33.603Z,1172
2017-03-07T11:18:33.606Z,1332
2017-03-07T11:19:33.614Z,1204
2017-03-07T11:20:33.647Z,932
2017-03-07T11:21:33.646Z,912
2017-03-07T11:22:33.662Z,1056
2017-03-07T11:23:33.290Z,1156
2017-03-07T11:24:33.687Z,1144
2017-03-07T11:25:33.761Z,1132
2017-03-07T11:26:33.730Z,1184
2017-03-07T11:27:33.355Z,1204
2017-03-07T11:28:33.749Z,1252
2017-03-07T11:29:33.382Z,1316
2017-03-07T11:30:33.768Z,1368
2017-03-07T11:31:33.798Z,1320
2017-03-07T11:32:33.794Z,1332
2017-03-07T11:33:33.831Z,1308
2017-03-07T11:34:33.877Z,1248
2017-03-07T11:35:33.439Z,1280
2017-03-07T11:36:33.875Z,1228
2017-03-07T11:37:33.471Z,996
2017-03-07T11:38:33.877Z,980
2017-03-07T11:39:33.499Z,944
2017-03-07T11:40:33.927Z,868
2017-03-07T11:41:33.935Z,860
2017-03-07T11:42:33.957Z,820
2017-03-07T11:43:33.948Z,892
2017-03-07T11:44:33.971Z,884
2017-03-07T11:45:34.103Z,940
2017-03-07T11:46:34.114Z,948
2017-03-07T11:47:34.122Z,856
2017-03-07T11:48:34.128Z,932
2017-03-07T11:49:34.138Z,888
2017-03-07T11:50:34.159Z,916
2017-03-07T11:51:34.168Z,888
2017-03-07T11:52:34.086Z,912
2017-03-07T11:53:34.223Z,916
2017-03-07T11:54:33.708Z,928
2017-03-07T11:55:34.230Z,880
2017-03-07T11:56:33.757Z,824
2017-03-07T11:57:34.248Z,872
2017-03-07T11:58:34.258Z,884
2017-03-07T11:59:33.791Z,960
2017-03-07T12:00:33.799Z,872
2017-03-07T12:01:33.832Z,1020
2017-03-07T12:02:33.844Z,976
2017-03-07T12:03:33.457Z,792
2017-03-07T12:04:34.322Z,900
2017-03-07T12:05:33.864Z,968
2017-03-07T12:06:33.923Z,964
2017-03-07T12:07:33.913Z,928
2017-03-07T12:08:33.923Z,872
2017-03-07T12:09:34.066Z,852
2017-03-07T12:10:34.454Z,864
2017-03-07T12:11:33.970Z,868
2017-03-07T12:12:33.968Z,848
2017-03-07T12:13:34.052Z,836
2017-03-07T12:14:34.061Z,788
2017-03-07T12:15:34.070Z,772
2017-03-07T12:16:34.611Z,808
2017-03-07T12:17:34.617Z,804
2017-03-07T12:18:34.627Z,700
2017-03-07T12:19:34.623Z,752
2017-03-07T12:20:34.104Z,724
2017-03-07T12:21:34.589Z,680
2017-03-07T12:22:34.132Z,736
2017-03-07T12:23:34.129Z,740
2017-03-07T12:24:34.669Z,712
2017-03-07T12:25:34.742Z,680
2017-03-07T12:26:34.359Z,664
2017-03-07T12:27:34.215Z,704
2017-03-07T12:28:34.733Z,688
2017-03-07T12:29:34.223Z,724
2017-03-07T12:30:34.750Z,724
2017-03-07T12:31:34.253Z,708
2017-03-07T12:32:34.822Z,724
2017-03-07T12:33:35.317Z,768
2017-03-07T12:34:34.801Z,780
2017-03-07T12:35:34.726Z,804
2017-03-07T12:36:34.830Z,840
2017-03-07T12:37:34.724Z,836
2017-03-07T12:38:34.745Z,792
2017-03-07T12:39:34.756Z,756
2017-03-07T12:40:33.601Z,700
2017-03-07T12:41:34.073Z,748
2017-03-07T12:42:34.813Z,764
2017-03-07T12:43:34.817Z,820
2017-03-07T12:44:34.846Z,868
2017-03-07T12:45:34.834Z,896
2017-03-07T12:46:34.857Z,860
2017-03-07T12:47:34.478Z,892
2017-03-07T12:48:34.874Z,1132
2017-03-07T12:49:34.900Z,1324
2017-03-07T12:50:34.512Z,1360
2017-03-07T12:51:34.927Z,1416
2017-03-07T12:52:34.537Z,1272
2017-03-07T12:53:34.549Z,1204
2017-03-07T12:54:34.568Z,1152
2017-03-07T12:55:34.998Z,1140
2017-03-07T12:56:34.999Z,1288
2017-03-07T12:57:35.032Z,1164
2017-03-07T12:58:35.023Z,1136
2017-03-07T12:59:35.025Z,1104
2017-03-07T13:00:35.045Z,1164
2017-03-07T13:01:35.080Z,1004
2017-03-07T13:02:35.081Z,880
2017-03-07T13:03:35.093Z,796
2017-03-07T13:04:35.114Z,816
2017-03-07T13:05:34.719Z,828
2017-03-07T13:06:35.134Z,824
2017-03-07T13:07:35.160Z,824
2017-03-07T13:08:35.163Z,808
2017-03-07T13:09:35.184Z,884
2017-03-07T13:11:59.777Z,940
2017-03-07T13:12:59.096Z,952
2017-03-07T13:13:59.303Z,972
2017-03-07T13:14:59.110Z,948
2017-03-07T13:15:59.384Z,888
2017-03-07T13:16:58.743Z,940
2017-03-07T13:17:59.281Z,1096
2017-03-07T13:18:58.697Z,988
2017-03-07T13:19:59.083Z,956
2017-03-07T13:20:59.090Z,988
2017-03-07T13:21:59.102Z,1032
2017-03-07T13:22:58.741Z,1008
2017-03-07T13:23:59.118Z,940
2017-03-07T13:24:59.313Z,880
2017-03-07T13:25:59.195Z,948
2017-03-07T13:26:59.200Z,964
2017-03-07T13:27:59.213Z,1020
2017-03-07T13:28:59.206Z,992
2017-03-07T13:29:59.211Z,868
2017-03-07T13:30:59.227Z,960
2017-03-07T13:31:58.830Z,1084
2017-03-07T13:32:59.157Z,992
2017-03-07T13:34:11.542Z,912
2017-03-07T13:34:58.804Z,808
2017-03-07T13:35:59.251Z,780
2017-03-07T13:36:59.341Z,784
2017-03-07T13:37:58.830Z,664
2017-03-07T13:38:59.334Z,804
2017-03-07T13:39:59.343Z,764
2017-03-07T13:40:59.362Z,676
2017-03-07T13:41:59.481Z,636
2017-03-07T13:42:58.952Z,688
2017-03-07T13:43:59.498Z,672
2017-03-07T13:44:59.506Z,636
2017-03-07T13:45:59.515Z,700
2017-03-07T13:46:59.475Z,760
2017-03-07T13:47:59.494Z,752
2017-03-07T13:48:59.532Z,668
2017-03-07T13:49:59.521Z,616
2017-03-07T13:50:59.529Z,568
2017-03-07T13:51:59.547Z,528
2017-03-07T13:52:59.153Z,616
2017-03-07T13:53:59.614Z,520
2017-03-07T13:54:59.613Z,508
2017-03-07T13:55:59.616Z,544
2017-03-07T13:56:59.623Z,572
2017-03-07T13:57:59.632Z,684
2017-03-07T13:58:59.639Z,756
2017-03-07T13:59:59.649Z,704
2017-03-07T14:00:59.654Z,740
2017-03-07T14:01:59.656Z,752
2017-03-07T14:02:59.670Z,756
2017-03-07T14:03:59.675Z,800
2017-03-07T14:04:59.301Z,804
2017-03-07T14:05:59.294Z,824
2017-03-07T14:06:59.653Z,808
2017-03-07T14:07:59.063Z,712
2017-03-07T14:08:59.684Z,612
2017-03-07T14:09:59.475Z,600
2017-03-07T14:10:59.325Z,596
2017-03-07T14:11:59.709Z,648